Time;durP1;ratioP1;P1;durP2;ratioP2;P2;SDS_P1;SDS_P2;PMS_P1;PMS_P2;Temp;Humidity;BMP_temperature;BMP_pressure;BME280_temperature;BME280_humidity;BME280_pressure;Samples;Min_cycle;Max_cycle;Signal;HPM_P1;HPM_P2
2020/12/30 00:00:10;;;;;;;6.07;5.78;;;;;;;3.61;86.54;98839.63;5091598;28;20536;-67
2020/12/30 00:02:36;;;;;;;5.47;5.18;;;;;;;3.59;86.61;98836.25;5088566;28;20499;-67
2020/12/30 00:05:06;;;;;;;5.72;5.43;;;;;;;3.55;86.59;98840.69;5091835;28;20047;-68
2020/12/30 00:07:33;;;;;;;6.07;5.77;;;;;;;3.52;86.60;98843.34;5090561;28;20048;-67
2020/12/30 00:09:59;;;;;;;6.05;5.75;;;;;;;3.51;86.65;98840.81;5092065;28;20054;-66
2020/12/30 00:12:27;;;;;;;5.55;5.25;;;;;;;3.51;86.63;98844.25;5091143;28;20044;-67
2020/12/30 00:14:54;;;;;;;5.63;5.32;;;;;;;3.50;86.76;98858.09;5091532;28;20054;-68
2020/12/30 00:17:21;;;;;;;6.07;5.78;;;;;;;3.49;86.56;98859.00;5091352;28;20036;-67
2020/12/30 00:19:47;;;;;;;5.95;5.65;;;;;;;3.49;86.68;98861.59;5091293;28;20129;-66
2020/12/30 00:22:13;;;;;;;5.80;5.50;;;;;;;3.51;86.90;98858.94;5091377;28;20097;-66
2020/12/30 00:24:39;;;;;;;6.15;5.85;;;;;;;3.50;86.72;98852.94;5091741;28;20513;-67
2020/12/30 00:27:05;;;;;;;6.03;5.72;;;;;;;3.51;86.87;98862.38;5091163;28;20468;-68
2020/12/30 00:29:32;;;;;;;6.05;5.75;;;;;;;3.51;86.70;98864.97;5091320;28;20051;-67
2020/12/30 00:31:58;;;;;;;6.28;5.97;;;;;;;3.51;86.98;98858.94;5091472;28;20127;-68
2020/12/30 00:34:25;;;;;;;5.93;5.63;;;;;;;3.50;86.83;98852.94;5091083;28;20055;-67
2020/12/30 00:36:52;;;;;;;6.07;5.78;;;;;;;3.51;86.79;98856.34;5089321;28;20048;-68
2020/12/30 00:39:18;;;;;;;5.75;5.45;;;;;;;3.51;86.91;98856.34;5090970;28;20377;-67
2020/12/30 00:41:44;;;;;;;5.55;5.25;;;;;;;3.50;86.71;98846.91;5090566;28;20071;-66
2020/12/30 00:44:10;;;;;;;5.60;5.30;;;;;;;3.48;86.88;98843.50;5091765;28;20040;-66
2020/12/30 00:46:36;;;;;;;5.88;5.57;;;;;;;3.46;86.78;98853.94;5092618;28;20052;-66
2020/12/30 00:49:03;;;;;;;6.00;5.70;;;;;;;3.46;86.67;98858.25;5092387;28;20083;-66
2020/12/30 00:51:30;;;;;;;5.53;5.22;;;;;;;3.45;86.71;98853.97;5091332;28;20058;-66
2020/12/30 00:53:56;;;;;;;5.82;5.53;;;;;;;3.47;86.58;98857.34;5092325;28;20100;-66
2020/12/30 00:56:22;;;;;;;5.78;5.47;;;;;;;3.44;86.73;98850.53;5092170;28;20051;-66
2020/12/30 00:58:48;;;;;;;6.00;5.70;;;;;;;3.43;86.68;98848.84;5092181;28;20050;-67
2020/12/30 01:01:16;;;;;;;5.65;5.35;;;;;;;3.40;86.72;98841.19;5091901;28;20074;-67
2020/12/30 01:03:42;;;;;;;5.82;5.53;;;;;;;3.38;86.62;98844.72;5092171;28;20055;-67
2020/12/30 01:06:11;;;;;;;5.82;5.53;;;;;;;3.30;86.55;98845.78;5089663;28;20487;-66
2020/12/30 01:08:38;;;;;;;5.95;5.65;;;;;;;3.27;86.65;98856.25;5077776;28;20063;-66
2020/12/30 01:11:04;;;;;;;6.60;6.30;;;;;;;3.25;86.57;98852.00;5070786;28;20051;-67
2020/12/30 01:13:30;;;;;;;5.70;5.40;;;;;;;3.23;86.75;98854.66;5070727;28;20404;-67
2020/12/30 01:15:56;;;;;;;6.00;5.70;;;;;;;3.22;86.53;98852.94;5071589;28;20056;-68
2020/12/30 01:18:22;;;;;;;5.80;5.50;;;;;;;3.20;86.48;98849.56;5071436;28;20147;-66
2020/12/30 01:20:48;;;;;;;5.75;5.45;;;;;;;3.19;86.66;98855.63;5071157;28;20045;-66
2020/12/30 01:23:14;;;;;;;5.45;5.15;;;;;;;3.19;86.65;98847.88;5071840;28;20044;-66
2020/12/30 01:25:41;;;;;;;6.10;5.80;;;;;;;3.18;86.61;98851.34;5072021;28;20105;-66
2020/12/30 01:28:07;;;;;;;5.45;5.15;;;;;;;3.19;86.59;98852.22;5071638;28;20048;-67
2020/12/30 01:30:33;;;;;;;5.53;5.22;;;;;;;3.21;86.65;98855.59;5072014;28;20048;-66
2020/12/30 01:32:59;;;;;;;5.40;5.10;;;;;;;3.22;86.76;98854.69;5076441;28;20058;-66
2020/12/30 01:35:25;;;;;;;5.78;5.47;;;;;;;3.24;86.78;98852.91;5087838;28;20418;-67
2020/12/30 01:37:51;;;;;;;5.55;5.25;;;;;;;3.24;86.83;98856.34;5091001;28;20054;-65
2020/12/30 01:40:17;;;;;;;5.57;5.28;;;;;;;3.25;86.63;98864.94;5091266;28;20040;-65
2020/12/30 01:42:46;;;;;;;5.93;5.63;;;;;;;3.24;86.70;98871.88;5093555;28;20400;-67
2020/12/30 01:45:12;;;;;;;5.53;5.22;;;;;;;3.26;86.57;98875.28;5094771;28;20052;-67
2020/12/30 01:47:38;;;;;;;5.97;5.68;;;;;;;3.27;86.63;98876.13;5095189;28;20130;-66
2020/12/30 01:50:06;;;;;;;5.93;5.63;;;;;;;3.25;86.66;98872.72;5095652;28;20072;-67
2020/12/30 01:52:32;;;;;;;5.70;5.40;;;;;;;3.24;86.74;98871.88;5095100;28;20545;-67
2020/12/30 01:54:59;;;;;;;5.70;5.40;;;;;;;3.22;86.55;98875.41;5095479;28;20055;-67
2020/12/30 01:57:25;;;;;;;5.70;5.40;;;;;;;3.18;86.60;98877.25;5094947;28;20048;-67
2020/12/30 01:59:53;;;;;;;5.68;5.38;;;;;;;3.14;86.49;98880.00;5095431;28;20089;-67
2020/12/30 02:02:22;;;;;;;5.78;5.47;;;;;;;3.10;86.52;98874.03;5095103;28;20048;-68
2020/12/30 02:04:51;;;;;;;5.70;5.40;;;;;;;3.08;86.43;98878.41;5095148;28;20487;-67
2020/12/30 02:07:18;;;;;;;5.63;5.32;;;;;;;3.08;86.47;98888.75;5093216;28;20048;-67
2020/12/30 02:09:45;;;;;;;5.97;5.68;;;;;;;3.07;86.49;98884.47;5095218;28;20131;-67
2020/12/30 02:12:11;;;;;;;5.85;5.55;;;;;;;3.07;86.51;98889.66;5094134;28;20047;-68
2020/12/30 02:14:38;;;;;;;5.90;5.60;;;;;;;3.12;86.82;98879.16;5094969;28;20411;-67
2020/12/30 02:17:05;;;;;;;5.63;5.32;;;;;;;3.15;86.80;98876.50;5094633;28;20055;-68
2020/12/30 02:19:31;;;;;;;5.85;5.55;;;;;;;3.18;86.86;98876.41;5094752;28;20100;-68
2020/12/30 02:22:02;;;;;;;5.57;5.28;;;;;;;3.21;86.77;98886.66;5094204;28;20106;-68
2020/12/30 02:24:29;;;;;;;5.68;5.38;;;;;;;3.27;86.87;98882.13;5094868;28;20059;-67
2020/12/30 02:26:56;;;;;;;5.03;4.72;;;;;;;3.31;86.79;98888.91;5094883;28;20139;-68
2020/12/30 02:29:23;;;;;;;5.35;5.05;;;;;;;3.32;86.57;98892.34;5094633;28;20051;-67
2020/12/30 02:31:49;;;;;;;5.43;5.13;;;;;;;3.36;86.61;98887.06;5091864;28;20135;-67
2020/12/30 02:34:15;;;;;;;5.78;5.47;;;;;;;3.38;86.48;98875.81;5073392;28;20052;-66
2020/12/30 02:36:41;;;;;;;6.22;5.93;;;;;;;3.42;86.68;98879.97;5073153;28;20056;-66
2020/12/30 02:39:07;;;;;;;6.07;5.78;;;;;;;3.43;86.51;98872.16;5074008;28;20476;-66
2020/12/30 02:41:36;;;;;;;6.15;5.85;;;;;;;3.44;86.47;98868.66;5074257;28;20055;-68
2020/12/30 02:44:04;;;;;;;5.63;5.32;;;;;;;3.45;86.46;98870.38;5071991;28;20044;-67
2020/12/30 02:46:30;;;;;;;5.57;5.28;;;;;;;3.42;86.30;98877.38;5072586;28;20488;-66
2020/12/30 02:48:56;;;;;;;5.60;5.30;;;;;;;3.39;86.36;98874.91;5074096;28;20075;-68
2020/12/30 02:51:22;;;;;;;5.88;5.57;;;;;;;3.35;86.39;98868.97;5073643;28;20127;-67
2020/12/30 02:53:48;;;;;;;5.88;5.57;;;;;;;3.32;86.31;98866.44;5073956;28;20044;-67
2020/12/30 02:56:14;;;;;;;5.88;5.57;;;;;;;3.26;86.33;98862.31;5073487;28;20056;-67
2020/12/30 02:58:41;;;;;;;5.53;5.22;;;;;;;3.24;86.36;98871.88;5073854;28;20044;-66
2020/12/30 03:01:09;;;;;;;5.60;5.30;;;;;;;3.22;86.34;98878.84;5082912;28;20484;-67
2020/12/30 03:03:36;;;;;;;5.70;5.40;;;;;;;3.22;86.37;98873.66;5091175;28;20185;-68
2020/12/30 03:06:02;;;;;;;5.30;5.00;;;;;;;3.22;86.57;98868.50;5091702;28;20044;-67
2020/12/30 03:08:28;;;;;;;5.57;5.28;;;;;;;3.22;86.53;98868.50;5091196;28;20131;-66
2020/12/30 03:10:54;;;;;;;5.60;5.30;;;;;;;3.23;86.52;98874.53;5090709;28;20044;-68
2020/12/30 03:13:20;;;;;;;5.97;5.68;;;;;;;3.24;86.56;98871.88;5093097;28;20109;-66
2020/12/30 03:15:47;;;;;;;5.68;5.38;;;;;;;3.24;86.71;98871.88;5090692;28;20051;-68
2020/12/30 03:18:13;;;;;;;5.82;5.53;;;;;;;3.24;86.41;98876.22;5092431;28;20047;-67
2020/12/30 03:20:40;;;;;;;5.50;5.20;;;;;;;3.23;86.45;98885.72;5090111;28;20048;-67
2020/12/30 03:23:06;;;;;;;5.90;5.60;;;;;;;3.22;86.46;98878.84;5089234;28;20040;-67
2020/12/30 03:25:32;;;;;;;5.60;5.30;;;;;;;3.23;86.62;98882.28;5091172;28;20040;-67
2020/12/30 03:27:58;;;;;;;5.25;4.95;;;;;;;3.22;86.38;98889.22;5090409;28;20059;-66
2020/12/30 03:30:24;;;;;;;5.78;5.47;;;;;;;3.22;86.46;98890.94;5091266;28;20131;-69
2020/12/30 03:32:51;;;;;;;5.70;5.40;;;;;;;3.19;86.46;98883.28;5090813;28;20056;-67
2020/12/30 03:35:18;;;;;;;5.80;5.50;;;;;;;3.18;86.35;98887.63;5090426;28;20056;-68
2020/12/30 03:37:45;;;;;;;5.57;5.28;;;;;;;3.16;86.50;98878.19;5091686;28;20127;-68
2020/12/30 03:40:11;;;;;;;5.43;5.13;;;;;;;3.17;86.47;98885.06;5089774;28;20051;-67
2020/12/30 03:42:37;;;;;;;6.20;5.90;;;;;;;3.18;86.46;98879.84;5090658;28;20088;-67
2020/12/30 03:45:04;;;;;;;5.63;5.32;;;;;;;3.17;86.25;98885.06;5089792;28;20087;-67
2020/12/30 03:47:30;;;;;;;5.82;5.53;;;;;;;3.11;86.23;98886.09;5092503;28;20071;-67
2020/12/30 03:49:57;;;;;;;5.90;5.60;;;;;;;3.01;86.04;98889.84;5090046;28;20044;-67
2020/12/30 03:52:23;;;;;;;5.50;5.20;;;;;;;2.92;86.09;98888.38;5090144;28;20063;-68
2020/12/30 03:54:50;;;;;;;5.70;5.40;;;;;;;2.85;86.08;98892.03;5091115;28;20048;-67
2020/12/30 03:57:16;;;;;;;5.80;5.50;;;;;;;2.82;85.94;98886.09;5090720;28;20135;-67
2020/12/30 03:59:42;;;;;;;6.15;5.85;;;;;;;2.78;86.00;98887.09;5089511;28;20127;-67
2020/12/30 04:02:08;;;;;;;5.10;4.80;;;;;;;2.72;85.90;98882.94;5089158;28;20548;-67
2020/12/30 04:04:34;;;;;;;5.70;5.40;;;;;;;2.61;85.87;98880.63;5089988;28;20044;-66
2020/12/30 04:07:01;;;;;;;5.75;5.45;;;;;;;2.50;85.88;98886.97;5086145;28;20422;-66
2020/12/30 04:09:27;;;;;;;5.60;5.30;;;;;;;2.45;86.00;98889.69;5089477;28;20134;-67
2020/12/30 04:11:53;;;;;;;5.13;4.82;;;;;;;2.44;86.19;98890.59;5089430;28;20044;-67
2020/12/30 04:14:19;;;;;;;5.15;4.85;;;;;;;2.41;85.88;98888.09;5089986;28;20051;-67
2020/12/30 04:16:45;;;;;;;5.20;4.90;;;;;;;2.35;85.97;98889.13;5090954;28;20101;-68
2020/12/30 04:19:11;;;;;;;4.63;4.43;;;;;;;2.33;86.24;98890.06;5089255;28;20055;-67
2020/12/30 04:21:37;;;;;;;5.57;5.28;;;;;;;2.33;86.18;98892.63;5088991;28;20036;-68
2020/12/30 04:24:05;;;;;;;5.10;4.80;;;;;;;2.33;86.24;98895.22;5091247;28;20059;-66
2020/12/30 04:26:32;;;;;;;5.43;5.13;;;;;;;2.31;86.21;98886.66;5087874;28;20050;-67
2020/12/30 04:28:58;;;;;;;5.35;5.05;;;;;;;2.31;86.36;98891.84;5089680;28;20442;-67
2020/12/30 04:31:24;;;;;;;5.72;5.43;;;;;;;2.28;86.26;98891.88;5088651;28;20044;-68
2020/12/30 04:33:50;;;;;;;5.72;5.43;;;;;;;2.24;86.14;98890.28;5091575;28;20089;-67
2020/12/30 04:36:16;;;;;;;5.30;5.00;;;;;;;2.20;86.09;98888.66;5088087;28;20051;-68
2020/12/30 04:38:42;;;;;;;5.60;5.30;;;;;;;2.15;86.05;98891.38;5089820;28;20131;-67
2020/12/30 04:41:10;;;;;;;5.63;5.32;;;;;;;2.13;86.28;98898.31;5085644;28;20492;-68
2020/12/30 04:43:38;;;;;;;5.80;5.50;;;;;;;2.14;86.25;98893.13;5091391;28;20572;-67
2020/12/30 04:46:05;;;;;;;5.50;5.20;;;;;;;2.18;86.27;98893.03;5089910;28;20170;-68
2020/12/30 04:48:32;;;;;;;5.30;5.00;;;;;;;2.22;86.44;98892.06;5089265;28;20487;-67
2020/12/30 04:50:59;;;;;;;6.05;5.75;;;;;;;2.25;86.31;98886.81;5088703;28;20054;-68
2020/12/30 04:53:26;;;;;;;5.68;5.38;;;;;;;2.25;86.29;98886.81;5091072;28;20139;-67
2020/12/30 04:55:52;;;;;;;5.30;5.00;;;;;;;2.26;86.33;98885.91;5089654;28;20074;-69
2020/12/30 04:58:19;;;;;;;5.60;5.30;;;;;;;2.28;86.67;98891.88;5090934;28;20068;-67
2020/12/30 05:00:47;;;;;;;5.40;5.10;;;;;;;2.29;86.16;98894.47;5088719;28;20046;-67
2020/12/30 05:03:14;;;;;;;5.78;5.47;;;;;;;2.27;86.06;98909.13;5088620;28;20101;-67
2020/12/30 05:05:41;;;;;;;5.35;5.05;;;;;;;2.24;86.17;98904.06;5089830;28;20051;-68
2020/12/30 05:08:08;;;;;;;5.10;4.80;;;;;;;2.26;86.37;98909.19;5091278;28;20056;-68
2020/12/30 05:10:37;;;;;;;5.85;5.55;;;;;;;2.29;86.50;98904.81;5089037;28;20066;-68
2020/12/30 05:13:03;;;;;;;5.47;5.18;;;;;;;2.37;86.50;98909.75;5089256;28;20505;-68
2020/12/30 05:15:30;;;;;;;5.88;5.57;;;;;;;2.40;86.40;98909.69;5085782;28;20050;-67
2020/12/30 05:17:56;;;;;;;5.70;5.40;;;;;;;2.43;86.53;98907.00;5093700;28;20048;-67
2020/12/30 05:20:24;;;;;;;5.28;4.97;;;;;;;2.45;86.44;98903.47;5093593;28;20052;-67
2020/12/30 05:22:51;;;;;;;5.63;5.32;;;;;;;2.48;86.47;98905.13;5093257;28;20135;-67
2020/12/30 05:25:17;;;;;;;5.82;5.53;;;;;;;2.50;86.60;98916.31;5092502;28;20058;-67
2020/12/30 05:27:44;;;;;;;5.68;5.38;;;;;;;2.57;86.62;98914.41;5095022;28;20074;-69
2020/12/30 05:30:11;;;;;;;5.63;5.32;;;;;;;2.62;86.42;98912.53;5091951;28;20046;-67
2020/12/30 05:32:39;;;;;;;5.38;5.07;;;;;;;2.67;86.59;98903.75;5088891;28;20063;-66
2020/12/30 05:35:06;;;;;;;5.45;5.15;;;;;;;2.71;86.61;98907.97;5094578;28;20406;-68
2020/12/30 05:37:34;;;;;;;5.10;4.80;;;;;;;2.75;86.59;98895.78;5093364;28;20048;-67
2020/12/30 05:40:00;;;;;;;5.38;5.07;;;;;;;2.82;86.68;98904.22;5093313;28;20048;-67
2020/12/30 05:42:27;;;;;;;5.57;5.28;;;;;;;2.85;86.42;98896.34;5092719;28;20042;-67
2020/12/30 05:44:55;;;;;;;5.85;5.55;;;;;;;2.86;86.55;98904.06;5094118;28;20050;-67
2020/12/30 05:47:22;;;;;;;5.70;5.40;;;;;;;2.90;86.56;98912.59;5089877;28;20412;-67
2020/12/30 05:49:51;;;;;;;5.65;5.35;;;;;;;2.92;86.47;98911.69;5092834;28;20394;-67
2020/12/30 05:52:19;;;;;;;5.97;5.68;;;;;;;2.97;86.61;98927.09;5092743;28;20074;-67
2020/12/30 05:54:50;;;;;;;5.80;5.50;;;;;;;2.95;86.35;98932.31;5092804;28;20372;-68
2020/12/30 05:57:20;;;;;;;5.82;5.53;;;;;;;2.93;86.32;98939.28;5093847;28;20145;-69
2020/12/30 05:59:47;;;;;;;5.57;5.28;;;;;;;2.94;86.56;98945.28;5092182;28;20054;-70
2020/12/30 06:02:13;;;;;;;5.82;5.53;;;;;;;2.94;86.60;98951.31;5090754;28;20093;-68
2020/12/30 06:04:39;;;;;;;5.57;5.28;;;;;;;2.93;86.61;98953.94;5081259;28;20506;-68
2020/12/30 06:07:13;;;;;;;5.82;5.53;;;;;;;2.93;86.84;98956.53;5094792;28;20517;-70
2020/12/30 06:09:39;;;;;;;5.68;5.38;;;;;;;2.97;86.60;98942.63;5095062;28;20052;-68
2020/12/30 06:12:06;;;;;;;5.55;5.25;;;;;;;2.99;86.87;98946.84;5094970;28;20093;-69
2020/12/30 06:14:33;;;;;;;6.20;5.90;;;;;;;3.02;86.84;98943.31;5094909;28;20131;-69
2020/12/30 06:17:01;;;;;;;5.47;5.18;;;;;;;3.06;86.72;98950.09;5094803;28;20048;-69
2020/12/30 06:19:27;;;;;;;5.60;5.30;;;;;;;3.10;86.91;98951.72;5094645;28;20564;-69
2020/12/30 06:21:54;;;;;;;5.90;5.60;;;;;;;3.14;86.83;98953.34;5093933;28;20048;-69
2020/12/30 06:24:21;;;;;;;6.10;5.80;;;;;;;3.18;86.89;98954.09;5094727;28;20054;-69
2020/12/30 06:26:47;;;;;;;5.35;5.05;;;;;;;3.22;86.97;98955.69;5094562;28;20108;-69
2020/12/30 06:29:16;;;;;;;6.20;5.90;;;;;;;3.30;86.87;98959.75;5094263;28;20044;-68
2020/12/30 06:31:44;;;;;;;5.35;5.05;;;;;;;3.34;86.91;98960.53;5093983;28;20040;-69
2020/12/30 06:34:10;;;;;;;5.78;5.47;;;;;;;3.39;86.94;98956.06;5093753;28;20055;-68
2020/12/30 06:36:36;;;;;;;5.53;5.22;;;;;;;3.45;86.83;98962.78;5093876;28;20147;-69
2020/12/30 06:39:16;;;;;;;5.28;4.97;;;;;;;3.49;86.84;98957.47;5089193;28;20132;-69
2020/12/30 06:41:56;;;;;;;6.03;5.72;;;;;;;3.56;86.83;98968.50;5091003;28;20520;-69
2020/12/30 06:44:36;;;;;;;5.53;5.22;;;;;;;3.63;87.10;98970.00;5073978;28;20045;-68
2020/12/30 06:47:02;;;;;;;5.68;5.38;;;;;;;3.67;86.92;98967.28;5082031;28;20112;-69
2020/12/30 06:49:28;;;;;;;5.60;5.30;;;;;;;3.75;87.05;98976.53;5094054;28;20123;-69
2020/12/30 06:51:54;;;;;;;5.85;5.55;;;;;;;3.80;87.30;98974.69;5093987;28;20096;-70
2020/12/30 06:54:20;;;;;;;5.70;5.40;;;;;;;3.84;87.47;98978.88;5093312;28;20386;-69
2020/12/30 06:56:48;;;;;;;5.20;4.90;;;;;;;3.89;87.42;98982.16;5094142;28;20154;-69
2020/12/30 06:59:16;;;;;;;5.20;4.90;;;;;;;3.94;87.49;98982.84;5093720;28;20097;-69
2020/12/30 07:01:56;;;;;;;5.47;5.18;;;;;;;3.94;87.68;98978.50;5093736;28;20131;-68
2020/12/30 07:04:22;;;;;;;5.75;5.45;;;;;;;3.99;87.74;98978.38;5094012;28;20222;-69
2020/12/30 07:06:48;;;;;;;5.32;5.03;;;;;;;4.03;87.75;98976.53;5093787;28;20044;-70
2020/12/30 07:09:15;;;;;;;5.47;5.18;;;;;;;4.08;87.71;98969.44;5091193;28;20052;-70
2020/12/30 07:12:00;;;;;;;6.20;5.90;;;;;;;4.12;87.73;98971.03;5093454;28;20130;-69
2020/12/30 07:14:28;;;;;;;5.97;5.68;;;;;;;4.17;87.80;98958.78;5092924;28;20048;-69
2020/12/30 07:16:55;;;;;;;5.78;5.47;;;;;;;4.22;87.73;98956.88;5092946;28;20048;-69
2020/12/30 07:19:23;;;;;;;5.28;4.97;;;;;;;4.27;87.70;98954.97;5093533;28;20054;-69
2020/12/30 07:21:55;;;;;;;5.13;4.82;;;;;;;4.33;87.80;98949.56;5093374;28;20050;-70
2020/12/30 07:24:23;;;;;;;5.47;5.18;;;;;;;4.37;87.77;98950.31;5093492;28;20477;-69
2020/12/30 07:26:50;;;;;;;5.38;5.07;;;;;;;4.39;87.58;98940.75;5092651;28;20070;-70
2020/12/30 07:29:17;;;;;;;5.72;5.43;;;;;;;4.41;87.63;98936.38;5093120;28;20048;-69
2020/12/30 07:31:47;;;;;;;5.63;5.32;;;;;;;4.42;87.49;98943.25;5093174;28;20131;-68
2020/12/30 07:34:18;;;;;;;5.90;5.60;;;;;;;4.42;87.56;98944.09;5091864;28;20052;-69
2020/12/30 07:36:45;;;;;;;4.78;4.55;;;;;;;4.45;87.61;98943.13;5074108;28;20447;-69
2020/12/30 07:39:12;;;;;;;5.53;5.22;;;;;;;4.46;87.58;98947.44;5092302;28;20067;-68
2020/12/30 07:41:44;;;;;;;5.32;5.03;;;;;;;4.49;87.68;98945.56;5092467;28;20101;-69
2020/12/30 07:44:09;;;;;;;;;;;;;;;4.62;87.73;98956.38;5093017;28;20048;-67
2020/12/30 07:46:36;;;;;;;5.88;5.57;;;;;;;4.55;87.78;98949.69;5086716;28;20430;-67
2020/12/30 07:49:12;;;;;;;5.75;5.45;;;;;;;4.58;87.84;98944.41;5081961;28;20091;-69
2020/12/30 07:51:46;;;;;;;6.15;5.85;;;;;;;4.65;87.99;98939.84;5089448;28;20104;-69
2020/12/30 07:54:14;;;;;;;5.28;4.97;;;;;;;4.73;87.85;98943.00;5092762;28;20052;-69
2020/12/30 07:56:40;;;;;;;6.38;6.07;;;;;;;4.77;87.72;98940.25;5086476;28;20052;-69
2020/12/30 07:59:06;;;;;;;5.75;5.45;;;;;;;4.79;87.76;98938.47;5080991;28;20049;-69
2020/12/30 08:01:32;;;;;;;5.68;5.38;;;;;;;4.82;87.63;98927.97;5082319;28;20075;-67
2020/12/30 08:04:05;;;;;;;5.75;5.45;;;;;;;4.83;87.62;98924.47;5081632;28;20483;-67
2020/12/30 08:06:42;;;;;;;6.55;6.25;;;;;;;4.87;87.64;98925.22;5082033;28;20046;-66
2020/12/30 08:09:09;;;;;;;5.95;5.65;;;;;;;4.91;87.57;98929.38;5081881;28;20130;-67
2020/12/30 08:11:35;;;;;;;4.80;4.53;;;;;;;4.97;87.56;98931.75;5081387;28;20131;-67
2020/12/30 08:14:07;;;;;;;5.80;5.50;;;;;;;4.98;87.62;98924.78;5079836;28;20070;-68
2020/12/30 08:16:34;;;;;;;5.78;5.47;;;;;;;5.01;87.54;98930.75;5081006;28;20040;-66
2020/12/30 08:19:00;;;;;;;6.20;5.90;;;;;;;5.06;87.68;98928.81;5081256;28;20411;-67
2020/12/30 08:21:26;;;;;;;5.80;5.50;;;;;;;5.09;87.63;98926.09;5077813;28;20044;-67
2020/12/30 08:24:07;;;;;;;5.95;5.65;;;;;;;5.14;87.69;98924.19;5080293;28;20044;-67
2020/12/30 08:26:36;;;;;;;6.18;5.88;;;;;;;5.17;87.27;98924.06;5081959;28;20092;-67
2020/12/30 08:29:02;;;;;;;6.03;5.72;;;;;;;5.22;87.37;98920.47;5081374;28;20116;-67
2020/12/30 08:31:42;;;;;;;6.07;5.78;;;;;;;5.27;87.54;98924.56;5084566;28;20503;-68
2020/12/30 08:34:09;;;;;;;5.80;5.50;;;;;;;5.32;87.35;98933.03;5080716;28;20101;-69
2020/12/30 08:36:40;;;;;;;6.20;5.90;;;;;;;5.33;87.26;98941.69;5080320;28;20356;-69
2020/12/30 08:39:09;;;;;;;6.05;5.75;;;;;;;5.35;87.19;98932.91;5081900;28;20039;-68
2020/12/30 08:41:46;;;;;;;6.03;5.72;;;;;;;5.43;87.37;98940.44;5081164;28;20430;-69
2020/12/30 08:44:19;;;;;;;5.50;5.20;;;;;;;5.51;87.32;98938.38;5082100;28;20040;-69
2020/12/30 08:46:48;;;;;;;5.68;5.38;;;;;;;5.59;87.26;98931.13;5078096;28;20131;-69
2020/12/30 08:49:16;;;;;;;5.55;5.25;;;;;;;5.67;87.13;98936.88;5081290;28;20048;-69
2020/12/30 08:51:42;;;;;;;5.53;5.22;;;;;;;5.74;87.06;98940.94;5082577;28;20420;-69
2020/12/30 08:54:16;;;;;;;6.00;5.70;;;;;;;5.80;87.09;98935.47;5084074;28;20050;-68
2020/12/30 08:56:43;;;;;;;5.63;5.32;;;;;;;5.86;86.95;98924.00;5084460;28;20135;-69
2020/12/30 08:59:09;;;;;;;5.70;5.40;;;;;;;5.92;86.99;98928.13;5085939;28;20047;-68
2020/12/30 09:01:35;;;;;;;5.72;5.43;;;;;;;5.97;86.98;98920.97;5087188;28;20090;-68
2020/12/30 09:04:11;;;;;;;5.47;5.18;;;;;;;5.97;86.93;98919.22;5085623;28;20048;-69
2020/12/30 09:06:38;;;;;;;6.53;6.22;;;;;;;5.95;86.75;98918.44;5085553;28;20135;-70
2020/12/30 09:09:11;;;;;;;5.57;5.28;;;;;;;5.89;86.82;98920.44;5085264;28;20135;-69
2020/12/30 09:11:44;;;;;;;5.97;5.68;;;;;;;5.91;86.81;98919.47;5083967;28;20044;-69
2020/12/30 09:14:14;;;;;;;6.25;5.95;;;;;;;5.93;86.86;98929.81;5086625;28;20110;-69
2020/12/30 09:16:54;;;;;;;6.10;5.80;;;;;;;5.91;86.85;98923.84;5086793;28;20135;-70
2020/12/30 09:19:20;;;;;;;6.07;5.78;;;;;;;5.96;86.90;98924.50;5086209;28;20426;-69
2020/12/30 09:21:46;;;;;;;6.18;5.88;;;;;;;5.98;86.82;98926.13;5088409;28;20040;-68
2020/12/30 09:24:16;;;;;;;5.53;5.22;;;;;;;6.02;86.97;98917.28;5093456;28;20105;-69
2020/12/30 09:26:43;;;;;;;5.45;5.15;;;;;;;6.07;86.83;98919.72;5093191;28;20052;-68
2020/12/30 09:29:19;;;;;;;6.10;5.80;;;;;;;6.10;86.94;98917.81;5094962;28;20567;-68
2020/12/30 09:31:53;;;;;;;6.07;5.78;;;;;;;6.15;86.99;98915.03;5095207;28;20040;-67
2020/12/30 09:34:19;;;;;;;6.32;6.03;;;;;;;6.20;86.98;98926.09;5095078;28;20495;-68
2020/12/30 09:36:55;;;;;;;6.18;5.88;;;;;;;6.23;86.94;98918.16;5095075;28;20058;-68
2020/12/30 09:39:22;;;;;;;6.18;5.88;;;;;;;6.27;86.81;98924.94;5080839;28;20082;-68
2020/12/30 09:41:49;;;;;;;6.18;5.88;;;;;;;6.30;87.01;98927.41;5086596;28;20127;-67
2020/12/30 09:44:15;;;;;;;6.03;5.72;;;;;;;6.34;86.92;98921.16;5078263;28;20117;-67
2020/12/30 09:46:49;;;;;;;5.60;5.30;;;;;;;6.35;86.98;98922.84;5082658;28;20067;-66
2020/12/30 09:49:15;;;;;;;5.03;4.72;;;;;;;6.37;86.80;98926.22;5084188;28;20041;-66
2020/12/30 09:51:41;;;;;;;5.97;5.68;;;;;;;6.42;86.75;98933.84;5084631;28;20052;-66
2020/12/30 09:54:07;;;;;;;5.57;5.28;;;;;;;6.45;86.87;98932.84;5081695;28;20062;-66
2020/12/30 09:56:33;;;;;;;5.22;4.93;;;;;;;6.48;86.74;98930.16;5081474;28;20049;-67
2020/12/30 09:59:02;;;;;;;6.05;5.75;;;;;;;6.50;86.64;98928.31;5081537;28;20541;-66
2020/12/30 10:01:28;;;;;;;5.97;5.68;;;;;;;6.54;86.72;98929.88;5083633;28;20044;-66
2020/12/30 10:03:55;;;;;;;6.00;5.70;;;;;;;6.55;86.80;98928.97;5080421;28;20491;-67
2020/12/30 10:06:21;;;;;;;6.45;6.15;;;;;;;6.57;86.62;98927.13;5081970;28;20040;-65
2020/12/30 10:08:47;;;;;;;6.28;5.97;;;;;;;6.58;86.72;98934.88;5080159;28;20040;-66
2020/12/30 10:11:17;;;;;;;5.63;5.32;;;;;;;6.59;86.67;98930.53;5083377;28;20035;-67
2020/12/30 10:13:43;;;;;;;6.30;6.00;;;;;;;6.61;86.65;98932.13;5082601;28;20083;-66
2020/12/30 10:16:10;;;;;;;5.70;5.40;;;;;;;6.64;86.62;98938.97;5082805;28;20052;-65
2020/12/30 10:18:36;;;;;;;6.10;5.80;;;;;;;6.65;86.67;98931.09;5081617;28;20048;-65
2020/12/30 10:21:02;;;;;;;5.35;5.05;;;;;;;6.67;86.58;98925.84;5080952;28;20044;-66
2020/12/30 10:23:28;;;;;;;6.15;5.85;;;;;;;6.67;86.61;98929.28;5078993;28;20193;-65
2020/12/30 10:25:55;;;;;;;5.63;5.32;;;;;;;6.69;86.52;98924.88;5079149;28;20045;-66
2020/12/30 10:28:21;;;;;;;5.80;5.50;;;;;;;6.70;86.49;98923.09;5082855;28;20040;-65
2020/12/30 10:30:47;;;;;;;6.28;5.97;;;;;;;6.71;86.27;98907.41;5090849;28;20051;-65
2020/12/30 10:33:14;;;;;;;5.93;5.63;;;;;;;6.71;86.45;98899.59;5089525;28;20143;-65
2020/12/30 10:35:40;;;;;;;5.95;5.65;;;;;;;6.73;86.50;98896.91;5088533;28;20105;-64
2020/12/30 10:38:06;;;;;;;6.22;5.93;;;;;;;6.72;86.48;98892.63;5082700;28;20048;-65
2020/12/30 10:40:32;;;;;;;6.18;5.88;;;;;;;6.72;86.52;98884.81;5076761;28;20514;-65
2020/12/30 10:42:59;;;;;;;6.32;6.03;;;;;;;6.72;86.49;98885.66;5078564;28;20048;-64
2020/12/30 10:45:26;;;;;;;5.75;5.45;;;;;;;6.74;86.35;98888.19;5082321;28;20127;-68
2020/12/30 10:47:52;;;;;;;5.65;5.35;;;;;;;6.73;86.46;98876.09;5081148;28;20048;-66
2020/12/30 10:50:19;;;;;;;6.03;5.72;;;;;;;6.71;86.40;98872.72;5080369;28;20135;-65
2020/12/30 10:52:45;;;;;;;5.82;5.53;;;;;;;6.70;86.36;98881.44;5082718;28;20069;-65
2020/12/30 10:55:11;;;;;;;5.85;5.55;;;;;;;6.68;86.51;98883.25;5082459;28;20048;-65
2020/12/30 10:57:37;;;;;;;6.13;5.82;;;;;;;6.58;86.32;98876.75;5082963;28;20068;-66
2020/12/30 11:00:03;;;;;;;5.65;5.35;;;;;;;6.47;86.22;98884.22;5079722;28;20050;-66
2020/12/30 11:02:29;;;;;;;5.85;5.55;;;;;;;6.32;86.16;98880.50;5080874;28;20036;-65
2020/12/30 11:04:55;;;;;;;5.68;5.38;;;;;;;6.24;85.91;98882.56;5082282;28;20536;-67
2020/12/30 11:08:03;;;;;;;5.82;5.53;;;;;;;6.15;86.48;98873.41;5137722;27;20402;-69
2020/12/30 11:10:29;;;;;;;6.05;5.75;;;;;;;6.08;86.54;98875.41;5128787;27;20486;-67
2020/12/30 11:12:55;;;;;;;5.80;5.50;;;;;;;6.09;86.55;98873.66;5129206;27;20070;-69
2020/12/30 11:15:24;;;;;;;5.75;5.45;;;;;;;6.08;86.72;98867.63;5129225;27;20035;-68
2020/12/30 11:17:50;;;;;;;5.93;5.63;;;;;;;6.15;86.74;98863.00;5129384;27;20051;-64
2020/12/30 11:20:16;;;;;;;5.75;5.45;;;;;;;6.26;86.91;98865.16;5129284;27;20055;-64
2020/12/30 11:22:42;;;;;;;6.05;5.75;;;;;;;6.37;86.83;98874.16;5129578;27;20040;-69
2020/12/30 11:25:09;;;;;;;5.97;5.68;;;;;;;6.45;86.99;98870.38;5129411;27;20053;-67
2020/12/30 11:27:35;;;;;;;5.88;5.57;;;;;;;6.54;86.93;98859.59;5128792;27;20138;-65
2020/12/30 11:30:01;;;;;;;5.70;5.40;;;;;;;6.63;86.87;98859.16;5123493;27;20311;-66
2020/12/30 11:32:28;;;;;;;5.60;5.30;;;;;;;6.72;86.91;98863.97;5118008;28;20039;-66
2020/12/30 11:34:54;;;;;;;5.50;5.20;;;;;;;6.73;86.61;98860.47;5115776;27;20230;-67
2020/12/30 11:37:20;;;;;;;6.28;5.97;;;;;;;6.75;86.69;98863.00;5122398;28;20474;-65
2020/12/30 11:39:46;;;;;;;5.88;5.57;;;;;;;6.78;86.74;98858.47;5116841;27;20051;-66
2020/12/30 11:42:13;;;;;;;5.72;5.43;;;;;;;6.81;86.77;98855.75;5125101;27;20070;-66